sensor_id;sensor_type;location;lat;lon;timestamp;pressure;altitude;pressure_sealevel;temperature;humidity
21760;BME280;11041;50.854;20.580;2023-04-07T00:00:15;98503.09;;;0.09;100.00
21760;BME280;11041;50.854;20.580;2023-04-07T00:03:01;98532.44;;;0.23;100.00
21760;BME280;11041;50.854;20.580;2023-04-07T00:05:32;98522.34;;;0.13;100.00
21760;BME280;11041;50.854;20.580;2023-04-07T00:07:58;98515.81;;;0.09;100.00
21760;BME280;11041;50.854;20.580;2023-04-07T00:10:26;98521.44;;;0.07;100.00
21760;BME280;11041;50.854;20.580;2023-04-07T00:12:52;98544.03;;;0.18;100.00
21760;BME280;11041;50.854;20.580;2023-04-07T00:15:19;98532.13;;;0.19;100.00
21760;BME280;11041;50.854;20.580;2023-04-07T00:17:46;98520.97;;;0.10;100.00
21760;BME280;11041;50.854;20.580;2023-04-07T00:20:12;98527.91;;;0.28;100.00
21760;BME280;11041;50.854;20.580;2023-04-07T00:22:39;98534.75;;;0.36;100.00
21760;BME280;11041;50.854;20.580;2023-04-07T00:25:06;98529.91;;;0.38;100.00
21760;BME280;11041;50.854;20.580;2023-04-07T00:27:33;98532.66;;;0.43;100.00
21760;BME280;11041;50.854;20.580;2023-04-07T00:29:59;98503.88;;;0.27;100.00
21760;BME280;11041;50.854;20.580;2023-04-07T00:32:26;98494.88;;;0.21;100.00
21760;BME280;11041;50.854;20.580;2023-04-07T00:34:52;98529.97;;;0.43;100.00
21760;BME280;11041;50.854;20.580;2023-04-07T00:37:19;98508.00;;;0.34;100.00
21760;BME280;11041;50.854;20.580;2023-04-07T00:39:46;98524.06;;;0.46;100.00
21760;BME280;11041;50.854;20.580;2023-04-07T00:42:12;98498.22;;;0.33;100.00
21760;BME280;11041;50.854;20.580;2023-04-07T00:44:39;98520.06;;;0.54;100.00
21760;BME280;11041;50.854;20.580;2023-04-07T00:47:06;98518.75;;;0.56;100.00
21760;BME280;11041;50.854;20.580;2023-04-07T00:49:32;98519.59;;;0.62;100.00
21760;BME280;11041;50.854;20.580;2023-04-07T00:52:00;98503.28;;;0.52;100.00
21760;BME280;11041;50.854;20.580;2023-04-07T00:54:26;98516.03;;;0.56;100.00
21760;BME280;11041;50.854;20.580;2023-04-07T00:56:56;98518.03;;;0.66;100.00
21760;BME280;11041;50.854;20.580;2023-04-07T00:59:24;98478.34;;;0.45;100.00
21760;BME280;11041;50.854;20.580;2023-04-07T01:02:04;98489.16;;;0.45;100.00
21760;BME280;11041;50.854;20.580;2023-04-07T01:04:57;98476.31;;;0.30;100.00
21760;BME280;11041;50.854;20.580;2023-04-07T01:07:47;98512.50;;;0.51;100.00
21760;BME280;11041;50.854;20.580;2023-04-07T01:10:27;98494.88;;;0.48;100.00
21760;BME280;11041;50.854;20.580;2023-04-07T01:15:53;98507.41;;;0.59;100.00
21760;BME280;11041;50.854;20.580;2023-04-07T01:18:32;98491.72;;;0.56;100.00
21760;BME280;11041;50.854;20.580;2023-04-07T01:21:10;98514.56;;;0.71;100.00
21760;BME280;11041;50.854;20.580;2023-04-07T01:24:00;98533.56;;;0.81;100.00
21760;BME280;11041;50.854;20.580;2023-04-07T01:26:31;98517.94;;;0.88;100.00
21760;BME280;11041;50.854;20.580;2023-04-07T01:29:30;98491.38;;;0.80;100.00
21760;BME280;11041;50.854;20.580;2023-04-07T01:32:01;98479.47;;;0.81;100.00
21760;BME280;11041;50.854;20.580;2023-04-07T01:34:31;98475.16;;;0.80;100.00
21760;BME280;11041;50.854;20.580;2023-04-07T01:37:01;98501.47;;;0.90;100.00
21760;BME280;11041;50.854;20.580;2023-04-07T01:39:29;98498.63;;;0.74;100.00
21760;BME280;11041;50.854;20.580;2023-04-07T01:41:57;98513.50;;;0.77;100.00
21760;BME280;11041;50.854;20.580;2023-04-07T01:44:27;98499.88;;;0.61;100.00
21760;BME280;11041;50.854;20.580;2023-04-07T01:46:56;98481.91;;;0.50;100.00
21760;BME280;11041;50.854;20.580;2023-04-07T01:49:24;98503.09;;;0.58;100.00
21760;BME280;11041;50.854;20.580;2023-04-07T01:51:54;98484.88;;;0.49;100.00
21760;BME280;11041;50.854;20.580;2023-04-07T01:54:21;98457.44;;;0.35;100.00
21760;BME280;11041;50.854;20.580;2023-04-07T01:56:48;98475.41;;;0.46;100.00
21760;BME280;11041;50.854;20.580;2023-04-07T01:59:16;98495.78;;;0.59;100.00
21760;BME280;11041;50.854;20.580;2023-04-07T02:01:42;98477.84;;;0.48;100.00
21760;BME280;11041;50.854;20.580;2023-04-07T02:04:27;98497.16;;;0.61;100.00
21760;BME280;11041;50.854;20.580;2023-04-07T02:07:08;98506.47;;;0.76;100.00
21760;BME280;11041;50.854;20.580;2023-04-07T02:09:40;98497.81;;;0.74;100.00
21760;BME280;11041;50.854;20.580;2023-04-07T02:12:13;98482.84;;;0.61;100.00
21760;BME280;11041;50.854;20.580;2023-04-07T02:14:42;98472.03;;;0.61;100.00
21760;BME280;11041;50.854;20.580;2023-04-07T02:17:10;98466.09;;;0.64;100.00
21760;BME280;11041;50.854;20.580;2023-04-07T02:19:41;98478.03;;;0.68;100.00
21760;BME280;11041;50.854;20.580;2023-04-07T02:22:09;98489.72;;;0.79;100.00
21760;BME280;11041;50.854;20.580;2023-04-07T02:24:40;98468.53;;;0.66;100.00
21760;BME280;11041;50.854;20.580;2023-04-07T02:27:08;98483.88;;;0.60;100.00
21760;BME280;11041;50.854;20.580;2023-04-07T02:29:34;98469.09;;;0.68;100.00
21760;BME280;11041;50.854;20.580;2023-04-07T02:32:01;98473.16;;;0.65;100.00
21760;BME280;11041;50.854;20.580;2023-04-07T02:34:27;98493.25;;;0.79;100.00
21760;BME280;11041;50.854;20.580;2023-04-07T02:36:54;98472.91;;;0.72;100.00
21760;BME280;11041;50.854;20.580;2023-04-07T02:39:20;98474.88;;;0.81;100.00
21760;BME280;11041;50.854;20.580;2023-04-07T02:41:47;98484.31;;;0.79;100.00
21760;BME280;11041;50.854;20.580;2023-04-07T02:44:13;98481.16;;;0.87;100.00
21760;BME280;11041;50.854;20.580;2023-04-07T02:46:40;98480.06;;;0.88;100.00
21760;BME280;11041;50.854;20.580;2023-04-07T02:49:07;98481.66;;;0.84;100.00
21760;BME280;11041;50.854;20.580;2023-04-07T02:51:33;98476.78;;;0.81;100.00
21760;BME280;11041;50.854;20.580;2023-04-07T02:53:59;98462.19;;;0.82;100.00
21760;BME280;11041;50.854;20.580;2023-04-07T02:56:26;98483.31;;;0.85;100.00
21760;BME280;11041;50.854;20.580;2023-04-07T02:58:53;98488.69;;;0.80;100.00
21760;BME280;11041;50.854;20.580;2023-04-07T03:01:19;98472.34;;;0.70;100.00
21760;BME280;11041;50.854;20.580;2023-04-07T03:03:46;98498.38;;;0.76;100.00
21760;BME280;11041;50.854;20.580;2023-04-07T03:06:13;98469.63;;;0.70;100.00
21760;BME280;11041;50.854;20.580;2023-04-07T03:08:39;98491.66;;;0.83;100.00
21760;BME280;11041;50.854;20.580;2023-04-07T03:11:07;98484.94;;;0.86;100.00
21760;BME280;11041;50.854;20.580;2023-04-07T03:13:34;98485.50;;;0.88;100.00
21760;BME280;11041;50.854;20.580;2023-04-07T03:16:00;98451.03;;;0.73;100.00
21760;BME280;11041;50.854;20.580;2023-04-07T03:18:27;98489.56;;;0.91;100.00
21760;BME280;11041;50.854;20.580;2023-04-07T03:20:53;98485.25;;;0.90;100.00
21760;BME280;11041;50.854;20.580;2023-04-07T03:23:21;98476.50;;;0.77;100.00
21760;BME280;11041;50.854;20.580;2023-04-07T03:25:49;98491.16;;;0.87;100.00
21760;BME280;11041;50.854;20.580;2023-04-07T03:28:15;98480.25;;;0.76;100.00
21760;BME280;11041;50.854;20.580;2023-04-07T03:30:42;98477.75;;;0.70;100.00
21760;BME280;11041;50.854;20.580;2023-04-07T03:33:08;98459.09;;;0.68;100.00
21760;BME280;11041;50.854;20.580;2023-04-07T03:35:35;98476.09;;;0.63;100.00
21760;BME280;11041;50.854;20.580;2023-04-07T03:38:01;98465.81;;;0.60;100.00
21760;BME280;11041;50.854;20.580;2023-04-07T03:40:28;98486.22;;;0.78;100.00
21760;BME280;11041;50.854;20.580;2023-04-07T03:42:54;98472.09;;;0.71;100.00
21760;BME280;11041;50.854;20.580;2023-04-07T03:45:21;98482.50;;;0.84;100.00
21760;BME280;11041;50.854;20.580;2023-04-07T03:47:47;98472.41;;;0.75;100.00
21760;BME280;11041;50.854;20.580;2023-04-07T03:50:14;98478.91;;;0.79;100.00
21760;BME280;11041;50.854;20.580;2023-04-07T03:52:40;98478.91;;;0.79;100.00
21760;BME280;11041;50.854;20.580;2023-04-07T03:55:08;98449.06;;;0.63;100.00
21760;BME280;11041;50.854;20.580;2023-04-07T03:57:34;98455.59;;;0.68;100.00
21760;BME280;11041;50.854;20.580;2023-04-07T04:00:01;98447.50;;;0.73;100.00
21760;BME280;11041;50.854;20.580;2023-04-07T04:02:28;98468.69;;;0.86;100.00
21760;BME280;11041;50.854;20.580;2023-04-07T04:04:54;98480.31;;;0.87;100.00
21760;BME280;11041;50.854;20.580;2023-04-07T04:07:21;98475.97;;;0.80;100.00
21760;BME280;11041;50.854;20.580;2023-04-07T04:09:48;98472.09;;;0.71;100.00
21760;BME280;11041;50.854;20.580;2023-04-07T04:12:14;98488.19;;;0.88;100.00
21760;BME280;11041;50.854;20.580;2023-04-07T04:14:41;98468.63;;;0.76;100.00
21760;BME280;11041;50.854;20.580;2023-04-07T04:17:07;98494.44;;;0.94;100.00
21760;BME280;11041;50.854;20.580;2023-04-07T04:19:34;98484.72;;;0.93;100.00
21760;BME280;11041;50.854;20.580;2023-04-07T04:22:01;98492.66;;;1.04;100.00
21760;BME280;11041;50.854;20.580;2023-04-07T04:24:27;98482.31;;;0.96;100.00
21760;BME280;11041;50.854;20.580;2023-04-07T04:26:54;98481.75;;;0.94;100.00
21760;BME280;11041;50.854;20.580;2023-04-07T04:29:22;98489.63;;;1.01;100.00
21760;BME280;11041;50.854;20.580;2023-04-07T04:31:48;98486.94;;;1.01;100.00
21760;BME280;11041;50.854;20.580;2023-04-07T04:34:14;98504.81;;;1.02;100.00
21760;BME280;11041;50.854;20.580;2023-04-07T04:36:41;98476.00;;;0.85;100.00
21760;BME280;11041;50.854;20.580;2023-04-07T04:39:08;98473.00;;;0.82;100.00
21760;BME280;11041;50.854;20.580;2023-04-07T04:41:34;98476.03;;;0.91;100.00
21760;BME280;11041;50.854;20.580;2023-04-07T04:44:01;98480.38;;;0.92;100.00
21760;BME280;11041;50.854;20.580;2023-04-07T04:46:27;98493.66;;;0.98;100.00
21760;BME280;11041;50.854;20.580;2023-04-07T04:48:54;98486.06;;;0.90;100.00
21760;BME280;11041;50.854;20.580;2023-04-07T04:51:20;98488.25;;;0.98;100.00
21760;BME280;11041;50.854;20.580;2023-04-07T04:53:47;98496.69;;;1.02;100.00
21760;BME280;11041;50.854;20.580;2023-04-07T04:56:13;98475.84;;;1.02;100.00
21760;BME280;11041;50.854;20.580;2023-04-07T04:58:40;98476.38;;;0.99;100.00
21760;BME280;11041;50.854;20.580;2023-04-07T05:01:14;98490.00;;;1.15;100.00
21760;BME280;11041;50.854;20.580;2023-04-07T05:03:41;98478.81;;;1.01;100.00
21760;BME280;11041;50.854;20.580;2023-04-07T05:06:07;98504.34;;;1.15;100.00
21760;BME280;11041;50.854;20.580;2023-04-07T05:08:34;98507.06;;;1.15;100.00
21760;BME280;11041;50.854;20.580;2023-04-07T05:11:01;98503.25;;;1.11;100.00
21760;BME280;11041;50.854;20.580;2023-04-07T05:13:27;98494.38;;;1.16;100.00
21760;BME280;11041;50.854;20.580;2023-04-07T05:15:56;98503.59;;;1.25;100.00
21760;BME280;11041;50.854;20.580;2023-04-07T05:18:22;98478.63;;;1.13;100.00
21760;BME280;11041;50.854;20.580;2023-04-07T05:20:49;98488.34;;;1.09;100.00
21760;BME280;11041;50.854;20.580;2023-04-07T05:23:16;98474.28;;;1.06;100.00
21760;BME280;11041;50.854;20.580;2023-04-07T05:25:42;98487.31;;;1.15;100.00
21760;BME280;11041;50.854;20.580;2023-04-07T05:28:08;98491.13;;;1.19;100.00
21760;BME280;11041;50.854;20.580;2023-04-07T05:30:35;98481.34;;;1.13;100.00
21760;BME280;11041;50.854;20.580;2023-04-07T05:33:02;98504.69;;;1.24;100.00
21760;BME280;11041;50.854;20.580;2023-04-07T05:35:28;98509.56;;;1.27;100.00
21760;BME280;11041;50.854;20.580;2023-04-07T05:37:55;98488.63;;;1.12;100.00
21760;BME280;11041;50.854;20.580;2023-04-07T05:40:21;98496.03;;;1.27;100.00
21760;BME280;11041;50.854;20.580;2023-04-07T08:03:44;98495.06;;;2.01;100.00
21760;BME280;11041;50.854;20.580;2023-04-07T08:06:11;98491.03;;;2.09;100.00
21760;BME280;11041;50.854;20.580;2023-04-07T08:08:38;98482.88;;;2.04;100.00
21760;BME280;11041;50.854;20.580;2023-04-07T08:11:05;98504.56;;;2.09;100.00
21760;BME280;11041;50.854;20.580;2023-04-07T08:13:31;98497.00;;;2.11;100.00
21760;BME280;11041;50.854;20.580;2023-04-07T08:15:58;98490.78;;;2.16;100.00
21760;BME280;11041;50.854;20.580;2023-04-07T08:18:24;98489.72;;;2.17;100.00
21760;BME280;11041;50.854;20.580;2023-04-07T08:20:51;98505.97;;;2.17;100.00
21760;BME280;11041;50.854;20.580;2023-04-07T08:23:17;98494.84;;;2.13;100.00
21760;BME280;11041;50.854;20.580;2023-04-07T08:25:44;98495.97;;;2.22;100.00
21760;BME280;11041;50.854;20.580;2023-04-07T08:28:10;98486.47;;;2.20;100.00
21760;BME280;11041;50.854;20.580;2023-04-07T08:30:37;98496.78;;;2.33;100.00
21760;BME280;11041;50.854;20.580;2023-04-07T08:33:05;98508.72;;;2.27;100.00
21760;BME280;11041;50.854;20.580;2023-04-07T08:35:32;98502.50;;;2.31;100.00
21760;BME280;11041;50.854;20.580;2023-04-07T08:37:58;98507.13;;;2.41;100.00
21760;BME280;11041;50.854;20.580;2023-04-07T08:40:25;98510.63;;;2.37;100.00
21760;BME280;11041;50.854;20.580;2023-04-07T08:42:51;98487.84;;;2.32;100.00
21760;BME280;11041;50.854;20.580;2023-04-07T08:45:19;98496.53;;;2.34;100.00
21760;BME280;11041;50.854;20.580;2023-04-07T08:47:48;98502.50;;;2.42;100.00
21760;BME280;11041;50.854;20.580;2023-04-07T08:50:19;98510.66;;;2.52;100.00
21760;BME280;11041;50.854;20.580;2023-04-07T08:52:56;98508.50;;;2.54;100.00
21760;BME280;11041;50.854;20.580;2023-04-07T08:55:26;98500.63;;;2.52;100.00
21760;BME280;11041;50.854;20.580;2023-04-07T08:57:53;98503.88;;;2.60;100.00
21760;BME280;11041;50.854;20.580;2023-04-07T09:00:20;98485.72;;;2.55;100.00
21760;BME280;11041;50.854;20.580;2023-04-07T09:02:47;98489.50;;;2.64;100.00
21760;BME280;11041;50.854;20.580;2023-04-07T09:05:17;98494.69;;;2.66;100.00
21760;BME280;11041;50.854;20.580;2023-04-07T09:07:43;98494.44;;;2.67;100.00
21760;BME280;11041;50.854;20.580;2023-04-07T09:10:10;98501.75;;;2.77;100.00
21760;BME280;11041;50.854;20.580;2023-04-07T09:12:38;98493.63;;;2.72;100.00
21760;BME280;11041;50.854;20.580;2023-04-07T09:15:07;98502.81;;;2.76;100.00
21760;BME280;11041;50.854;20.580;2023-04-07T09:17:34;98489.81;;;2.68;100.00
21760;BME280;11041;50.854;20.580;2023-04-07T09:20:02;98499.84;;;2.72;100.00
21760;BME280;11041;50.854;20.580;2023-04-07T09:22:42;98497.13;;;2.77;100.00
21760;BME280;11041;50.854;20.580;2023-04-07T09:25:20;98490.88;;;2.67;100.00
21760;BME280;11041;50.854;20.580;2023-04-07T09:27:59;98482.47;;;2.73;100.00
21760;BME280;11041;50.854;20.580;2023-04-07T09:30:31;98491.16;;;2.81;100.00
21760;BME280;11041;50.854;20.580;2023-04-07T09:33:00;98497.13;;;2.83;100.00
21760;BME280;11041;50.854;20.580;2023-04-07T09:35:27;98500.94;;;2.92;100.00
21760;BME280;11041;50.854;20.580;2023-04-07T09:38:07;98481.41;;;2.95;100.00
21760;BME280;11041;50.854;20.580;2023-04-07T09:40:35;98487.91;;;3.09;100.00
21760;BME280;11041;50.854;20.580;2023-04-07T09:43:04;98493.88;;;3.11;100.00
21760;BME280;11041;50.854;20.580;2023-04-07T09:45:32;98490.06;;;3.17;100.00
21760;BME280;11041;50.854;20.580;2023-04-07T09:48:05;98496.56;;;3.22;100.00
21760;BME280;11041;50.854;20.580;2023-04-07T09:50:37;98494.97;;;3.20;100.00
21760;BME280;11041;50.854;20.580;2023-04-07T09:53:04;98498.19;;;3.33;100.00
21760;BME280;11041;50.854;20.580;2023-04-07T09:55:31;98500.63;;;3.45;100.00
21760;BME280;11041;50.854;20.580;2023-04-07T09:57:59;98505.25;;;3.49;100.00
21760;BME280;11041;50.854;20.580;2023-04-07T10:00:26;98496.53;;;3.52;100.00
21760;BME280;11041;50.854;20.580;2023-04-07T10:02:53;98502.75;;;3.63;100.00
21760;BME280;11041;50.854;20.580;2023-04-07T10:05:21;98510.06;;;3.68;100.00
21760;BME280;11041;50.854;20.580;2023-04-07T10:07:48;98502.22;;;3.66;100.00
21760;BME280;11041;50.854;20.580;2023-04-07T10:10:15;98501.09;;;3.72;100.00
21760;BME280;11041;50.854;20.580;2023-04-07T10:12:42;98500.25;;;3.77;100.00
21760;BME280;11041;50.854;20.580;2023-04-07T10:15:13;98501.06;;;3.77;100.00
21760;BME280;11041;50.854;20.580;2023-04-07T10:17:45;98502.69;;;3.83;100.00
21760;BME280;11041;50.854;20.580;2023-04-07T10:20:18;98509.47;;;3.86;100.00
21760;BME280;11041;50.854;20.580;2023-04-07T10:22:48;98503.50;;;3.84;100.00
21760;BME280;11041;50.854;20.580;2023-04-07T10:25:21;98506.75;;;3.91;100.00
21760;BME280;11041;50.854;20.580;2023-04-07T10:27:59;98509.75;;;3.84;100.00
21760;BME280;11041;50.854;20.580;2023-04-07T10:30:30;98496.41;;;3.93;100.00
21760;BME280;11041;50.854;20.580;2023-04-07T10:32:57;98506.19;;;3.94;100.00
21760;BME280;11041;50.854;20.580;2023-04-07T10:35:25;98506.16;;;4.04;100.00
21760;BME280;11041;50.854;20.580;2023-04-07T10:38:11;98498.53;;;4.01;100.00
21760;BME280;11041;50.854;20.580;2023-04-07T10:40:43;98506.13;;;4.10;100.00
21760;BME280;11041;50.854;20.580;2023-04-07T10:43:10;98497.41;;;4.13;100.00
21760;BME280;11041;50.854;20.580;2023-04-07T10:45:56;98509.91;;;4.19;100.00
21760;BME280;11041;50.854;20.580;2023-04-07T10:48:25;98510.16;;;4.17;100.00
21760;BME280;11041;50.854;20.580;2023-04-07T10:51:13;98510.13;;;4.22;100.00
21760;BME280;11041;50.854;20.580;2023-04-07T10:54:22;98507.69;;;4.26;100.00
21760;BME280;11041;50.854;20.580;2023-04-07T10:57:11;98516.34;;;4.33;100.00
21760;BME280;11041;50.854;20.580;2023-04-07T11:02:40;98513.34;;;4.35;100.00
21760;BME280;11041;50.854;20.580;2023-04-07T11:05:07;98518.00;;;4.29;100.00
21760;BME280;11041;50.854;20.580;2023-04-07T11:07:53;98517.44;;;4.32;100.00
21760;BME280;11041;50.854;20.580;2023-04-07T11:10:22;98519.59;;;4.35;100.00
21760;BME280;11041;50.854;20.580;2023-04-07T11:13:01;98516.59;;;4.37;100.00
21760;BME280;11041;50.854;20.580;2023-04-07T11:15:31;98526.34;;;4.48;100.00
21760;BME280;11041;50.854;20.580;2023-04-07T11:18:21;98530.09;;;4.52;100.00
21760;BME280;11041;50.854;20.580;2023-04-07T11:20:59;98531.75;;;4.53;100.00
21760;BME280;11041;50.854;20.580;2023-04-07T11:23:49;98514.66;;;4.42;100.00
21760;BME280;11041;50.854;20.580;2023-04-07T11:26:15;98528.75;;;4.55;100.00
21760;BME280;11041;50.854;20.580;2023-04-07T11:28:51;98527.88;;;4.64;100.00
21760;BME280;11041;50.854;20.580;2023-04-07T11:31:27;98528.69;;;4.65;100.00
21760;BME280;11041;50.854;20.580;2023-04-07T11:34:02;98525.44;;;4.63;100.00
21760;BME280;11041;50.854;20.580;2023-04-07T11:36:42;98538.47;;;4.66;100.00
21760;BME280;11041;50.854;20.580;2023-04-07T11:39:22;98523.25;;;4.65;100.00
21760;BME280;11041;50.854;20.580;2023-04-07T11:41:51;98542.25;;;4.70;100.00
21760;BME280;11041;50.854;20.580;2023-04-07T11:44:18;98537.34;;;4.72;100.00
21760;BME280;11041;50.854;20.580;2023-04-07T11:47:02;98529.22;;;4.67;100.00
21760;BME280;11041;50.854;20.580;2023-04-07T11:49:44;98528.28;;;4.87;100.00
21760;BME280;11041;50.854;20.580;2023-04-07T13:02:10;98543.84;;;5.74;100.00
21760;BME280;11041;50.854;20.580;2023-04-07T13:58:31;98590.72;;;6.05;100.00
21760;BME280;11041;50.854;20.580;2023-04-07T15:15:01;98619.69;;;6.25;100.00
21760;BME280;11041;50.854;20.580;2023-04-07T15:17:37;98620.88;;;6.19;100.00
21760;BME280;11041;50.854;20.580;2023-04-07T15:20:04;98612.44;;;6.15;100.00
21760;BME280;11041;50.854;20.580;2023-04-07T15:22:31;98632.88;;;6.18;100.00
21760;BME280;11041;50.854;20.580;2023-04-07T15:24:58;98632.13;;;6.12;100.00
21760;BME280;11041;50.854;20.580;2023-04-07T15:27:24;98628.88;;;6.10;100.00
21760;BME280;11041;50.854;20.580;2023-04-07T15:29:50;98635.44;;;6.09;100.00
21760;BME280;11041;50.854;20.580;2023-04-07T15:32:17;98637.09;;;6.05;100.00
21760;BME280;11041;50.854;20.580;2023-04-07T15:34:43;98632.50;;;6.01;100.00
21760;BME280;11041;50.854;20.580;2023-04-07T15:37:12;98648.06;;;6.00;100.00
21760;BME280;11041;50.854;20.580;2023-04-07T15:39:39;98644.03;;;5.92;100.00
21760;BME280;11041;50.854;20.580;2023-04-07T15:42:05;98654.94;;;5.92;100.00
21760;BME280;11041;50.854;20.580;2023-04-07T15:44:38;98648.75;;;5.82;100.00
21760;BME280;11041;50.854;20.580;2023-04-07T15:47:06;98647.41;;;5.79;100.00
21760;BME280;11041;50.854;20.580;2023-04-07T15:49:34;98650.72;;;5.76;100.00
21760;BME280;11041;50.854;20.580;2023-04-07T15:52:06;98654.88;;;5.68;100.00
21760;BME280;11041;50.854;20.580;2023-04-07T15:54:33;98644.81;;;5.64;100.00
21760;BME280;11041;50.854;20.580;2023-04-07T15:56:59;98658.44;;;5.64;100.00
21760;BME280;11041;50.854;20.580;2023-04-07T15:59:26;98659.03;;;5.61;100.00
21760;BME280;11041;50.854;20.580;2023-04-07T16:01:56;98670.47;;;5.58;100.00
21760;BME280;11041;50.854;20.580;2023-04-07T16:04:22;98667.53;;;5.54;100.00
21760;BME280;11041;50.854;20.580;2023-04-07T16:06:50;98670.84;;;5.46;100.00
21760;BME280;11041;50.854;20.580;2023-04-07T16:09:16;98681.72;;;5.46;100.00
21760;BME280;11041;50.854;20.580;2023-04-07T16:11:43;98675.78;;;5.39;100.00
21760;BME280;11041;50.854;20.580;2023-04-07T16:14:09;98677.47;;;5.34;100.00
21760;BME280;11041;50.854;20.580;2023-04-07T16:16:36;98693.81;;;5.34;100.00
21760;BME280;11041;50.854;20.580;2023-04-07T16:19:06;98683.75;;;5.30;100.00
21760;BME280;11041;50.854;20.580;2023-04-07T16:21:32;98683.50;;;5.26;100.00
21760;BME280;11041;50.854;20.580;2023-04-07T16:23:59;98693.31;;;5.27;100.00
21760;BME280;11041;50.854;20.580;2023-04-07T16:26:26;98692.00;;;5.20;100.00
21760;BME280;11041;50.854;20.580;2023-04-07T16:28:52;98701.81;;;5.16;100.00
21760;BME280;11041;50.854;20.580;2023-04-07T16:31:19;98703.22;;;5.13;100.00
21760;BME280;11041;50.854;20.580;2023-04-07T16:33:45;98702.69;;;5.06;100.00
21760;BME280;11041;50.854;20.580;2023-04-07T16:36:12;98697.81;;;4.98;100.00
21760;BME280;11041;50.854;20.580;2023-04-07T16:38:38;98718.00;;;4.97;100.00
21760;BME280;11041;50.854;20.580;2023-04-07T16:41:07;98716.63;;;4.94;100.00
21760;BME280;11041;50.854;20.580;2023-04-07T16:43:33;98726.16;;;4.97;100.00
21760;BME280;11041;50.854;20.580;2023-04-07T16:46:00;98727.78;;;4.93;100.00
21760;BME280;11041;50.854;20.580;2023-04-07T16:48:26;98739.22;;;4.95;100.00
21760;BME280;11041;50.854;20.580;2023-04-07T16:50:53;98737.09;;;4.86;100.00
21760;BME280;11041;50.854;20.580;2023-04-07T16:53:19;98743.63;;;4.85;100.00
21760;BME280;11041;50.854;20.580;2023-04-07T16:55:46;98746.66;;;4.79;100.00
21760;BME280;11041;50.854;20.580;2023-04-07T16:58:12;98753.19;;;4.73;100.00
21760;BME280;11041;50.854;20.580;2023-04-07T17:00:39;98754.59;;;4.60;99.92
21760;BME280;11041;50.854;20.580;2023-04-07T17:03:05;98750.50;;;4.52;100.00
21760;BME280;11041;50.854;20.580;2023-04-07T17:05:32;98755.16;;;4.52;100.00
21760;BME280;11041;50.854;20.580;2023-04-07T17:07:58;98769.56;;;4.52;100.00
21760;BME280;11041;50.854;20.580;2023-04-07T17:10:25;98754.91;;;4.43;100.00
21760;BME280;11041;50.854;20.580;2023-04-07T17:12:51;98772.59;;;4.45;100.00
21760;BME280;11041;50.854;20.580;2023-04-07T17:15:22;98770.38;;;4.42;100.00
21760;BME280;11041;50.854;20.580;2023-04-07T17:17:51;98776.94;;;4.36;100.00
21760;BME280;11041;50.854;20.580;2023-04-07T17:20:19;98784.31;;;4.31;100.00
21760;BME280;11041;50.854;20.580;2023-04-07T17:22:51;98795.69;;;4.33;100.00
21760;BME280;11041;50.854;20.580;2023-04-07T17:25:20;98779.16;;;4.14;99.92
21760;BME280;11041;50.854;20.580;2023-04-07T17:27:49;98792.44;;;4.15;99.33
21760;BME280;11041;50.854;20.580;2023-04-07T17:30:53;98797.63;;;4.07;99.87
21760;BME280;11041;50.854;20.580;2023-04-07T17:33:27;98794.06;;;3.96;100.00
21760;BME280;11041;50.854;20.580;2023-04-07T17:36:02;98799.25;;;3.92;100.00
21760;BME280;11041;50.854;20.580;2023-04-07T17:38:37;98816.38;;;3.93;99.74
21760;BME280;11041;50.854;20.580;2023-04-07T17:41:05;98797.59;;;3.76;99.36
21760;BME280;11041;50.854;20.580;2023-04-07T17:43:35;98819.34;;;3.81;99.83
21760;BME280;11041;50.854;20.580;2023-04-07T17:46:01;98814.16;;;3.74;100.00
21760;BME280;11041;50.854;20.580;2023-04-07T17:48:33;98824.47;;;3.72;99.77
21760;BME280;11041;50.854;20.580;2023-04-07T17:51:03;98834.28;;;3.78;99.95
21760;BME280;11041;50.854;20.580;2023-04-07T17:53:32;98832.63;;;3.72;100.00
21760;BME280;11041;50.854;20.580;2023-04-07T18:00:11;98837.75;;;3.53;99.87
21760;BME280;11041;50.854;20.580;2023-04-07T18:02:45;98859.53;;;3.63;99.89
21760;BME280;11041;50.854;20.580;2023-04-07T18:05:29;98845.06;;;3.48;99.54
21760;BME280;11041;50.854;20.580;2023-04-07T18:15:42;98859.91;;;3.25;99.82
21760;BME280;11041;50.854;20.580;2023-04-07T18:18:39;98887.06;;;3.25;99.76
21760;BME280;11041;50.854;20.580;2023-04-07T18:21:06;98878.06;;;3.19;100.00
21760;BME280;11041;50.854;20.580;2023-04-07T18:23:44;98875.34;;;3.14;100.00
21760;BME280;11041;50.854;20.580;2023-04-07T18:26:44;98882.13;;;3.11;100.00
21760;BME280;11041;50.854;20.580;2023-04-07T18:29:40;98888.63;;;3.10;100.00
21760;BME280;11041;50.854;20.580;2023-04-07T18:32:34;98903.06;;;3.16;100.00
21760;BME280;11041;50.854;20.580;2023-04-07T18:39:04;98913.28;;;3.04;100.00
21760;BME280;11041;50.854;20.580;2023-04-07T18:41:44;98911.06;;;2.95;99.75
21760;BME280;11041;50.854;20.580;2023-04-07T18:44:24;98929.56;;;2.98;100.00
21760;BME280;11041;50.854;20.580;2023-04-07T18:47:26;98924.66;;;3.01;100.00
21760;BME280;11041;50.854;20.580;2023-04-07T18:50:22;98939.31;;;2.99;100.00
21760;BME280;11041;50.854;20.580;2023-04-07T18:53:09;98918.06;;;2.86;99.80
21760;BME280;11041;50.854;20.580;2023-04-07T18:59:38;98929.22;;;2.90;99.77
21760;BME280;11041;50.854;20.580;2023-04-07T19:02:05;98935.75;;;2.94;100.00
21760;BME280;11041;50.854;20.580;2023-04-07T19:04:32;98935.41;;;2.85;99.71
21760;BME280;11041;50.854;20.580;2023-04-07T19:06:59;98940.28;;;2.83;99.54
21760;BME280;11041;50.854;20.580;2023-04-07T19:09:25;98940.28;;;2.83;99.63